Time;durP1;ratioP1;P1;durP2;ratioP2;P2;SDS_P1;SDS_P2;PMS_P1;PMS_P2;Temp;Humidity;BMP_temperature;BMP_pressure;BME280_temperature;BME280_humidity;BME280_pressure;Samples;Min_cycle;Max_cycle;Signal;HPM_P1;HPM_P2
2022/08/03 00:01:09;;;;;;;9.23;5.50;;;;;;;21.24;75.69;100848.03;4991615;28;20109;-80
2022/08/03 00:03:35;;;;;;;7.20;5.82;;;;;;;21.22;76.25;100849.28;4993097;28;20054;-79
2022/08/03 00:06:02;;;;;;;11.10;5.50;;;;;;;21.16;76.04;100845.63;4993546;28;20133;-78
2022/08/03 00:08:29;;;;;;;6.97;5.13;;;;;;;21.22;76.06;100844.78;4992682;28;20077;-78
2022/08/03 00:10:55;;;;;;;9.32;6.55;;;;;;;21.19;76.04;100845.19;4992085;28;20637;-77
2022/08/03 00:13:22;;;;;;;8.45;4.78;;;;;;;21.25;76.16;100843.53;4981150;28;20089;-79
2022/08/03 00:15:51;;;;;;;10.63;5.15;;;;;;;21.26;75.95;100837.16;4986500;28;20049;-78
2022/08/03 00:18:19;;;;;;;11.98;5.75;;;;;;;21.26;75.39;100837.97;4993918;28;20513;-77
2022/08/03 00:20:46;;;;;;;8.02;5.20;;;;;;;21.26;75.33;100837.16;4989399;28;20513;-79
2022/08/03 00:23:13;;;;;;;12.90;5.32;;;;;;;21.26;75.21;100835.31;4990339;28;20085;-78
2022/08/03 00:25:40;;;;;;;8.35;5.05;;;;;;;21.28;74.63;100832.41;4990689;28;20129;-78
2022/08/03 00:28:06;;;;;;;11.45;5.30;;;;;;;21.26;75.03;100831.84;4996995;28;20156;-76
2022/08/03 00:30:34;;;;;;;11.32;5.75;;;;;;;21.19;74.79;100845.19;4991015;28;20078;-78
2022/08/03 00:33:01;;;;;;;15.10;6.00;;;;;;;21.17;74.86;100828.63;4993506;28;20475;-77
2022/08/03 00:35:30;;;;;;;12.13;5.57;;;;;;;21.15;74.98;100833.34;4993209;28;20738;-79
2022/08/03 00:37:57;;;;;;;9.10;5.80;;;;;;;21.16;74.76;100827.81;4992682;28;20084;-78
2022/08/03 00:40:24;;;;;;;14.32;5.30;;;;;;;21.11;75.05;100821.53;4992093;28;20512;-78
2022/08/03 00:42:53;;;;;;;10.88;5.32;;;;;;;21.08;75.09;100828.09;4991534;28;20472;-76
2022/08/03 00:45:21;;;;;;;10.88;5.10;;;;;;;21.08;74.62;100827.28;4989881;28;20397;-76
2022/08/03 00:47:48;;;;;;;7.82;5.45;;;;;;;21.06;74.79;100824.03;4995684;28;20129;-80
2022/08/03 00:50:17;;;;;;;8.45;5.13;;;;;;;21.03;74.68;100825.28;4991068;28;20164;-81
2022/08/03 00:52:45;;;;;;;11.68;5.35;;;;;;;21.05;74.60;100823.22;4992164;28;20129;-78
2022/08/03 00:55:12;;;;;;;10.35;5.00;;;;;;;20.99;74.54;100817.94;4989635;28;20074;-78
2022/08/03 00:57:39;;;;;;;8.35;5.75;;;;;;;20.99;74.56;100824.09;4991445;28;20092;-77
2022/08/03 01:00:08;;;;;;;7.57;4.75;;;;;;;20.95;74.87;100820.25;4990358;28;20129;-77
2022/08/03 01:02:35;;;;;;;6.72;4.80;;;;;;;20.99;74.84;100815.28;4991473;28;20524;-77
2022/08/03 01:05:02;;;;;;;7.93;5.22;;;;;;;20.96;75.31;100823.72;4989341;28;20085;-78
2022/08/03 01:07:39;;;;;;;7.00;4.70;;;;;;;20.93;75.41;100811.66;4992267;28;20085;-76
2022/08/03 01:10:17;;;;;;;7.53;5.50;;;;;;;20.95;75.08;100814.09;4978122;28;20081;-78
2022/08/03 01:12:50;;;;;;;9.63;5.70;;;;;;;20.87;75.30;100818.66;4990644;28;20062;-78
2022/08/03 01:15:29;;;;;;;10.80;5.40;;;;;;;20.80;75.70;100817.91;4988551;28;20493;-78
2022/08/03 01:18:00;;;;;;;9.02;4.93;;;;;;;20.76;75.55;100816.75;4996722;28;20048;-79
2022/08/03 01:20:32;;;;;;;7.07;5.05;;;;;;;20.73;75.86;100811.03;4987673;28;20047;-78
2022/08/03 01:23:37;;;;;;;9.52;5.20;;;;;;;20.63;76.33;100808.88;4986317;28;20062;-77
2022/08/03 01:26:19;;;;;;;11.73;5.28;;;;;;;20.51;76.60;100811.41;4983842;28;20085;-79
2022/08/03 01:29:04;;;;;;;9.20;5.43;;;;;;;20.48;77.14;100805.72;4990289;28;20505;-78
2022/08/03 01:31:40;;;;;;;9.10;5.30;;;;;;;20.47;76.86;100809.41;4991405;28;20082;-77
2022/08/03 01:34:10;;;;;;;5.95;4.97;;;;;;;20.49;76.86;100817.97;4985708;28;20101;-78
2022/08/03 01:36:40;;;;;;;7.63;4.90;;;;;;;20.37;77.23;100819.66;4989312;28;20084;-77
2022/08/03 01:39:10;;;;;;;9.35;5.22;;;;;;;20.41;77.52;100820.91;4990205;28;20216;-79
2022/08/03 01:41:42;;;;;;;8.20;4.88;;;;;;;20.44;77.22;100812.50;4989349;28;20046;-78
2022/08/03 01:44:11;;;;;;;6.50;5.05;;;;;;;20.37;77.25;100817.00;4991670;28;20125;-78
2022/08/03 01:46:41;;;;;;;8.55;5.20;;;;;;;20.24;77.77;100811.81;4990131;28;20085;-77
2022/08/03 01:49:10;;;;;;;7.70;5.30;;;;;;;20.05;78.51;100809.06;4988848;28;20125;-80
2022/08/03 01:51:41;;;;;;;7.30;5.30;;;;;;;19.95;78.85;100808.72;4987916;28;20062;-77
2022/08/03 01:54:10;;;;;;;8.68;5.20;;;;;;;19.85;79.19;100811.00;4991785;28;20100;-78
2022/08/03 01:56:39;;;;;;;10.23;5.57;;;;;;;19.86;79.07;100818.75;4989235;28;20096;-78
2022/08/03 01:59:08;;;;;;;9.80;5.75;;;;;;;19.75;79.76;100810.66;4989167;28;20054;-77
2022/08/03 02:01:37;;;;;;;6.78;5.43;;;;;;;19.60;80.40;100796.84;4987073;28;20078;-77
2022/08/03 02:04:07;;;;;;;8.30;5.57;;;;;;;19.62;80.53;100805.41;4989923;28;20145;-77
2022/08/03 02:06:35;;;;;;;6.72;5.28;;;;;;;19.70;80.32;100802.53;4990421;28;20101;-78
2022/08/03 02:09:02;;;;;;;6.72;5.00;;;;;;;19.68;80.64;100816.00;4991536;28;20054;-77
2022/08/03 02:11:32;;;;;;;10.32;5.72;;;;;;;19.74;80.30;100809.03;4991156;28;20100;-77
2022/08/03 02:14:03;;;;;;;8.05;5.78;;;;;;;19.77;80.36;100813.94;4976516;28;20146;-78
2022/08/03 02:16:32;;;;;;;9.18;5.93;;;;;;;19.75;80.34;100810.66;4983606;28;20092;-78
2022/08/03 02:19:01;;;;;;;12.63;6.40;;;;;;;19.75;80.40;100811.47;4982089;28;20058;-79
2022/08/03 02:21:31;;;;;;;11.55;6.28;;;;;;;19.76;80.44;100801.69;4992370;28;20046;-78
2022/08/03 02:23:58;;;;;;;9.77;6.68;;;;;;;19.75;80.45;100810.66;4995580;28;20108;-80
2022/08/03 02:26:29;;;;;;;9.38;6.95;;;;;;;19.66;80.91;100803.97;4991667;28;20043;-80
2022/08/03 02:28:59;;;;;;;10.55;6.30;;;;;;;19.67;81.12;100813.56;4994238;28;20133;-80
2022/08/03 02:31:37;;;;;;;11.30;6.15;;;;;;;19.66;81.25;100810.09;4994616;28;20524;-79
2022/08/03 02:34:08;;;;;;;8.65;6.25;;;;;;;19.61;81.49;100815.22;4993430;28;20479;-79
2022/08/03 02:36:41;;;;;;;9.65;6.20;;;;;;;19.60;81.56;100808.28;4993403;28;20497;-79
2022/08/03 02:39:11;;;;;;;8.55;6.32;;;;;;;19.55;81.59;100805.44;4992771;28;20054;-79
2022/08/03 02:41:45;;;;;;;12.75;6.68;;;;;;;19.55;81.49;100806.25;4992664;28;20074;-77
2022/08/03 02:44:13;;;;;;;8.55;5.90;;;;;;;19.48;81.85;100804.59;4991040;28;20089;-77
2022/08/03 02:46:44;;;;;;;9.27;6.50;;;;;;;19.42;82.14;100805.44;4992739;28;20050;-78
2022/08/03 02:49:13;;;;;;;9.40;6.05;;;;;;;19.45;82.08;100811.16;4992488;28;20130;-78
2022/08/03 02:51:42;;;;;;;11.60;6.38;;;;;;;19.40;82.52;100800.34;4996052;28;20056;-79
2022/08/03 02:54:10;;;;;;;7.45;6.03;;;;;;;19.43;82.21;100807.06;4993610;28;20081;-79
2022/08/03 02:56:38;;;;;;;8.68;6.25;;;;;;;19.40;82.14;100808.31;4993431;28;20089;-80
2022/08/03 02:59:10;;;;;;;10.45;5.85;;;;;;;19.39;82.29;100806.69;4994901;28;20480;-78
2022/08/03 03:10:51;;;;;;;7.85;5.90;;;;;;;19.26;83.02;100809.41;5889737;23;20078;-78
2022/08/03 03:13:21;;;;;;;7.07;5.85;;;;;;;19.20;83.38;100802.28;4999252;28;20082;-80
2022/08/03 03:15:48;;;;;;;9.63;6.30;;;;;;;19.08;83.71;100782.69;4985978;28;20046;-78
2022/08/03 03:18:19;;;;;;;8.13;6.05;;;;;;;19.13;83.89;100810.25;4998483;28;20130;-79
2022/08/03 03:20:59;;;;;;;8.55;6.50;;;;;;;18.95;84.48;100801.28;4992428;28;20077;-78
2022/08/03 03:23:31;;;;;;;9.45;6.82;;;;;;;18.90;84.70;100786.81;4993222;28;20077;-78
2022/08/03 03:26:06;;;;;;;9.52;6.70;;;;;;;18.87;85.03;100797.84;4989291;28;20046;-80
2022/08/03 03:28:35;;;;;;;7.95;6.38;;;;;;;18.89;85.28;100800.31;5000042;28;20113;-80
2022/08/03 03:31:10;;;;;;;8.85;6.43;;;;;;;18.81;85.18;100780.13;5000886;28;20050;-80
2022/08/03 03:33:38;;;;;;;7.43;6.30;;;;;;;18.80;84.96;100791.75;5000735;28;20085;-80
2022/08/03 03:36:53;;;;;;;11.57;6.72;;;;;;;18.80;85.32;100791.75;4986740;28;20082;-80
2022/08/03 03:43:05;;;;;;;9.63;6.38;;;;;;;18.79;85.12;100791.94;4996643;28;20058;-80
2022/08/03 03:45:37;;;;;;;8.93;6.43;;;;;;;19.01;85.31;100819.03;4993355;28;20050;-80
2022/08/03 03:48:05;;;;;;;8.45;6.43;;;;;;;19.02;85.27;100812.69;4999889;28;20063;-82
2022/08/03 03:50:39;;;;;;;9.30;6.88;;;;;;;18.87;84.83;100789.91;4992476;28;20104;-79
2022/08/03 03:53:12;;;;;;;10.32;6.57;;;;;;;18.93;85.23;100811.28;5001670;28;20391;-80
2022/08/03 03:55:41;;;;;;;10.73;6.05;;;;;;;18.94;85.24;100819.03;5003471;28;20046;-79
2022/08/03 04:18:18;;;;;;;12.43;6.57;;;;;;;18.82;85.84;100804.78;4813434;29;20052;-80
2022/08/03 04:20:59;;;;;;;7.57;6.18;;;;;;;18.96;85.63;100824.13;4871221;29;20056;-80
2022/08/03 04:23:38;;;;;;;9.10;6.40;;;;;;;18.93;85.59;100804.16;4881555;29;20051;-80
2022/08/03 04:30:00;;;;;;;11.88;6.63;;;;;;;19.31;84.11;100833.47;4930501;23;20076;-79
2022/08/03 04:32:35;;;;;;;7.10;6.32;;;;;;;19.37;84.01;100816.72;4874985;29;20052;-78
2022/08/03 04:35:02;;;;;;;9.85;7.07;;;;;;;19.44;83.87;100814.84;4898504;29;20052;-81
2022/08/03 04:37:38;;;;;;;9.38;6.38;;;;;;;19.60;83.48;100828.69;4898139;29;20584;-78
2022/08/03 04:40:09;;;;;;;8.25;6.68;;;;;;;19.60;83.41;100826.03;4880765;29;20166;-79
2022/08/03 04:42:38;;;;;;;9.27;6.70;;;;;;;19.68;82.89;100825.81;4886479;29;20090;-78
2022/08/03 04:45:06;;;;;;;7.22;6.30;;;;;;;19.94;82.26;100833.63;4898634;29;20058;-79
2022/08/03 04:47:35;;;;;;;10.30;6.50;;;;;;;20.10;81.12;100830.50;4892091;29;20091;-81
2022/08/03 04:50:03;;;;;;;6.88;6.07;;;;;;;20.32;80.64;100835.47;4899768;29;20052;-78
2022/08/03 04:52:31;;;;;;;8.38;6.10;;;;;;;20.47;79.92;100836.00;4899023;29;20057;-78
2022/08/03 04:54:57;;;;;;;9.65;6.22;;;;;;;20.49;79.53;100833.94;4899006;29;20048;-78
2022/08/03 04:57:24;;;;;;;7.63;6.47;;;;;;;20.50;79.50;100835.56;4898140;29;20635;-78
2022/08/03 04:59:53;;;;;;;14.95;7.57;;;;;;;20.68;78.82;100821.53;4895690;29;20071;-79
2022/08/03 05:02:20;;;;;;;8.80;5.93;;;;;;;21.02;77.46;100820.19;4895592;29;20092;-79
2022/08/03 05:04:48;;;;;;;6.50;5.70;;;;;;;21.09;77.42;100829.72;4897117;29;20064;-78
2022/08/03 05:07:16;;;;;;;8.13;6.45;;;;;;;20.93;77.86;100824.16;4901042;29;20080;-80
2022/08/03 05:09:44;;;;;;;11.23;6.78;;;;;;;20.76;78.24;100827.38;4893570;29;20084;-80
2022/08/03 05:12:11;;;;;;;10.60;6.50;;;;;;;20.92;78.09;100819.84;4894679;29;20421;-78
2022/08/03 05:14:38;;;;;;;9.32;6.05;;;;;;;21.17;77.48;100828.63;4899344;29;20080;-80
2022/08/03 05:17:05;;;;;;;8.30;6.13;;;;;;;21.45;76.11;100822.81;4896750;29;20056;-80
2022/08/03 05:19:32;;;;;;;9.80;6.38;;;;;;;21.62;75.60;100828.34;4902071;29;20465;-80
2022/08/03 05:22:00;;;;;;;12.18;6.75;;;;;;;22.57;72.44;100836.44;4895038;29;20053;-80
2022/08/03 05:24:27;;;;;;;10.25;6.30;;;;;;;23.01;70.82;100832.44;4899730;29;20076;-80
2022/08/03 05:27:02;;;;;;;14.60;6.35;;;;;;;23.93;68.65;100825.28;4897455;29;20111;-81
2022/08/03 05:29:32;;;;;;;9.00;6.07;;;;;;;23.96;67.25;100830.13;4902799;29;20135;-80
2022/08/03 05:32:04;;;;;;;12.63;6.30;;;;;;;25.05;64.53;100822.56;4892407;29;20056;-81
2022/08/03 05:34:30;;;;;;;11.07;6.75;;;;;;;25.22;64.03;100822.53;4901582;29;20048;-81
2022/08/03 05:36:57;;;;;;;7.65;6.35;;;;;;;25.05;64.15;100827.09;4900820;29;20060;-80
2022/08/03 05:39:26;;;;;;;8.35;6.80;;;;;;;25.32;63.51;100821.84;4904474;29;20056;-79
2022/08/03 05:41:55;;;;;;;12.02;6.80;;;;;;;25.18;63.43;100812.56;4901087;29;20080;-80
2022/08/03 05:44:24;;;;;;;9.52;6.25;;;;;;;25.12;63.95;100811.69;4900201;29;20508;-80
2022/08/03 05:46:51;;;;;;;10.77;6.25;;;;;;;26.30;60.93;100819.97;4891908;29;20056;-80
2022/08/03 05:49:23;;;;;;;8.73;5.63;;;;;;;25.50;61.84;100804.66;4894320;29;20428;-80
2022/08/03 05:51:51;;;;;;;8.75;5.75;;;;;;;25.87;61.25;100808.31;4899445;29;20053;-79
2022/08/03 05:54:20;;;;;;;9.35;6.07;;;;;;;26.52;59.66;100830.63;4896775;29;20076;-80
2022/08/03 05:56:48;;;;;;;9.32;5.72;;;;;;;26.07;61.00;100829.13;4899951;29;20072;-79
2022/08/03 05:59:25;;;;;;;8.70;6.47;;;;;;;27.08;57.96;100821.09;4892872;29;20080;-78
2022/08/03 06:01:54;;;;;;;10.90;7.55;;;;;;;28.30;54.64;100822.31;4900971;29;20053;-82
2022/08/03 06:04:21;;;;;;;9.70;6.00;;;;;;;28.82;53.41;100831.19;4903809;29;20527;-82
2022/08/03 06:06:49;;;;;;;10.23;6.07;;;;;;;28.22;54.91;100822.84;4903033;29;20049;-81
2022/08/03 06:09:16;;;;;;;8.60;5.30;;;;;;;29.02;53.28;100831.09;4900708;29;20440;-80
2022/08/03 06:11:43;;;;;;;11.63;6.22;;;;;;;27.95;55.73;100823.03;4903675;29;20086;-81
2022/08/03 06:14:11;;;;;;;11.05;5.70;;;;;;;28.85;53.25;100822.53;4901671;29;20167;-81
2022/08/03 06:16:38;;;;;;;9.13;5.50;;;;;;;28.50;53.79;100829.56;4900258;29;20408;-80
2022/08/03 06:19:05;;;;;;;8.05;5.40;;;;;;;28.97;52.05;100834.63;4901337;29;20087;-80
2022/08/03 06:21:32;;;;;;;9.02;4.95;;;;;;;30.57;49.61;100835.13;4905953;29;20045;-81
2022/08/03 06:23:58;;;;;;;9.02;5.38;;;;;;;28.74;51.94;100830.63;4905257;29;20045;-81
2022/08/03 06:26:27;;;;;;;8.68;5.32;;;;;;;29.22;51.92;100830.25;4905739;29;20064;-80
2022/08/03 06:28:54;;;;;;;11.98;5.60;;;;;;;30.01;50.20;100827.44;4900840;29;20430;-82
2022/08/03 06:31:24;;;;;;;9.70;5.32;;;;;;;29.39;51.15;100830.69;4900930;29;20078;-82
2022/08/03 06:33:54;;;;;;;11.45;5.43;;;;;;;28.91;52.18;100830.31;4907264;29;20045;-81
2022/08/03 06:36:20;;;;;;;12.38;5.80;;;;;;;30.02;50.35;100820.97;4906058;29;20087;-82
2022/08/03 06:38:47;;;;;;;7.68;5.35;;;;;;;30.83;48.38;100832.16;4903575;29;20057;-81
2022/08/03 06:41:14;;;;;;;13.52;5.55;;;;;;;30.52;48.05;100831.63;4906052;29;20049;-82
2022/08/03 06:43:53;;;;;;;8.43;4.97;;;;;;;30.53;49.02;100830.56;4895960;29;20076;-81
2022/08/03 06:46:23;;;;;;;11.50;5.45;;;;;;;30.04;49.51;100826.88;4905358;29;20082;-83
2022/08/03 06:52:15;;;;;;;11.25;5.70;;;;;;;31.22;47.32;100840.13;4851398;29;20096;-84
2022/08/03 06:54:45;;;;;;;16.00;5.43;;;;;;;32.14;46.02;100818.06;4849929;29;20082;-82
2022/08/03 06:57:12;;;;;;;11.23;5.07;;;;;;;32.45;45.45;100830.03;4907943;29;20056;-83
2022/08/03 06:59:40;;;;;;;7.63;5.10;;;;;;;32.40;44.71;100824.69;4902903;29;20564;-82
2022/08/03 07:02:15;;;;;;;11.50;4.95;;;;;;;33.19;43.31;100838.13;4907496;29;20504;-82
2022/08/03 07:04:42;;;;;;;8.38;4.90;;;;;;;32.13;45.05;100811.84;4906995;29;20049;-81
2022/08/03 07:07:24;;;;;;;14.65;5.78;;;;;;;32.69;44.50;100819.00;4904079;29;20048;-81
2022/08/03 07:12:44;;;;;;;7.55;4.90;;;;;;;32.27;44.81;100822.72;4914387;29;19934;-80
2022/08/03 07:15:19;;;;;;;13.65;4.85;;;;;;;32.44;45.17;100833.84;4914495;29;20071;-80
2022/08/03 07:18:39;;;;;;;14.68;5.30;;;;;;;31.39;46.84;100839.66;4917787;29;20063;-81
2022/08/03 07:21:09;;;;;;;8.85;5.15;;;;;;;32.50;44.67;100815.59;4914456;29;20053;-82
2022/08/03 07:23:37;;;;;;;10.60;5.00;;;;;;;32.71;44.55;100837.69;4898776;29;20052;-82
2022/08/03 07:26:03;;;;;;;10.13;5.05;;;;;;;33.24;43.94;100825.28;4899339;29;20057;-82
2022/08/03 07:28:30;;;;;;;8.48;4.43;;;;;;;33.39;43.21;100826.09;4907204;29;20056;-82
2022/08/03 07:30:58;;;;;;;8.10;4.53;;;;;;;33.45;42.56;100835.75;4927147;29;20058;-81
2022/08/03 07:33:26;;;;;;;8.60;5.57;;;;;;;34.11;42.10;100820.66;4903786;29;20461;-82
2022/08/03 07:35:53;;;;;;;13.45;5.25;;;;;;;34.36;41.16;100833.66;4907074;29;20061;-82
2022/08/03 07:38:28;;;;;;;12.23;4.88;;;;;;;34.26;41.26;100850.97;4905544;29;20049;-83
2022/08/03 07:44:32;;;;;;;12.00;4.32;;;;;;;34.44;41.35;100816.63;4902063;29;20117;-82
2022/08/03 07:46:59;;;;;;;9.82;4.43;;;;;;;32.07;44.19;100812.22;4895379;29;20060;-80
2022/08/03 07:49:27;;;;;;;10.88;4.75;;;;;;;32.36;44.64;100820.97;4899289;29;20060;-82
2022/08/03 07:54:34;;;;;;;12.82;4.47;;;;;;;34.45;41.85;100822.84;4897103;29;20048;-82
2022/08/03 07:57:01;;;;;;;10.80;4.65;;;;;;;34.37;41.07;100826.31;4898595;29;20061;-78
2022/08/03 07:59:28;;;;;;;9.63;4.90;;;;;;;34.38;41.84;100812.41;4897073;29;20462;-83
2022/08/03 08:01:58;;;;;;;8.30;4.35;;;;;;;34.34;41.39;100830.44;4897161;29;20070;-82
2022/08/03 08:04:33;;;;;;;10.35;4.57;;;;;;;34.15;41.69;100827.09;4904217;29;20045;-83
2022/08/03 08:07:12;;;;;;;12.38;4.50;;;;;;;34.46;40.85;100808.16;4902661;29;20430;-81
2022/08/03 08:09:38;;;;;;;13.93;4.55;;;;;;;34.18;41.25;100818.31;4901357;29;20792;-80
2022/08/03 08:12:06;;;;;;;7.70;3.97;;;;;;;34.22;42.13;100832.88;4904868;29;20059;-82
2022/08/03 08:14:33;;;;;;;9.30;4.43;;;;;;;34.81;40.99;100822.72;4898237;29;20080;-84
2022/08/03 08:17:02;;;;;;;10.50;3.90;;;;;;;34.97;40.06;100832.06;4903893;29;20307;-80
2022/08/03 08:19:28;;;;;;;8.20;3.80;;;;;;;34.90;40.49;100827.09;4897852;29;20084;-80
2022/08/03 08:21:55;;;;;;;10.35;4.18;;;;;;;35.04;40.35;100832.38;4903608;29;20053;-80
2022/08/03 08:24:23;;;;;;;5.78;3.60;;;;;;;34.95;40.44;100823.44;4895046;29;20515;-79
2022/08/03 08:26:50;;;;;;;9.25;3.85;;;;;;;34.19;41.36;100828.88;4903249;29;20059;-81
2022/08/03 08:29:18;;;;;;;6.65;4.03;;;;;;;34.27;41.14;100820.00;4910707;29;20083;-80
2022/08/03 08:31:45;;;;;;;12.13;4.18;;;;;;;34.61;41.32;100813.16;4922912;29;20052;-80
2022/08/03 08:34:12;;;;;;;6.90;4.00;;;;;;;34.81;41.02;100822.72;4914014;29;20063;-80
2022/08/03 08:36:39;;;;;;;7.13;4.03;;;;;;;34.48;40.83;100820.31;4900929;29;20180;-81
2022/08/03 08:39:12;;;;;;;7.32;4.00;;;;;;;34.87;40.03;100803.25;4903638;29;20056;-80
2022/08/03 08:42:02;;;;;;;8.15;4.07;;;;;;;33.38;42.41;100797.38;4905945;29;20135;-80
2022/08/03 08:44:30;;;;;;;11.77;3.80;;;;;;;34.26;40.88;100812.97;4912275;29;20048;-82
2022/08/03 08:47:03;;;;;;;6.50;3.80;;;;;;;35.11;40.71;100808.25;4914021;29;20059;-80
2022/08/03 08:49:39;;;;;;;9.02;3.80;;;;;;;34.52;41.46;100817.75;4922725;29;20063;-81
2022/08/03 08:52:12;;;;;;;6.80;3.88;;;;;;;34.37;40.32;100805.38;4900955;29;20433;-83
2022/08/03 08:54:41;;;;;;;11.90;3.85;;;;;;;34.27;41.74;100816.47;4900106;29;20044;-82
2022/08/03 08:57:10;;;;;;;9.02;4.13;;;;;;;34.55;40.89;100798.91;4898543;29;20067;-83
2022/08/03 08:59:40;;;;;;;10.70;3.97;;;;;;;34.23;40.28;100796.47;4920827;29;20139;-83
2022/08/03 09:02:10;;;;;;;14.32;4.05;;;;;;;34.39;39.82;100799.63;4912879;29;20469;-81
2022/08/03 09:04:39;;;;;;;12.00;3.80;;;;;;;34.40;39.75;100812.91;4899268;29;20056;-82
2022/08/03 09:07:10;;;;;;;8.60;3.90;;;;;;;32.62;42.22;100813.19;4909165;29;20048;-83
2022/08/03 09:09:39;;;;;;;10.40;3.78;;;;;;;31.73;43.12;100797.03;4905998;29;20063;-81
2022/08/03 09:12:09;;;;;;;5.97;3.45;;;;;;;32.84;41.94;100799.00;4899478;29;20052;-83
2022/08/03 09:14:37;;;;;;;7.70;3.70;;;;;;;33.93;40.81;100815.13;4896227;29;20106;-84
2022/08/03 09:17:05;;;;;;;12.82;3.85;;;;;;;34.41;39.52;100819.94;4896901;29;20082;-81
2022/08/03 09:19:33;;;;;;;14.23;4.00;;;;;;;34.68;38.50;100818.16;4900202;29;20117;-82
2022/08/03 09:22:15;;;;;;;6.47;3.35;;;;;;;33.60;40.05;100817.19;4903834;29;20077;-82
2022/08/03 09:25:03;;;;;;;3.78;3.10;;;;;;;33.60;39.88;100827.25;4896199;29;20053;-80
2022/08/03 09:27:41;;;;;;;11.75;3.75;;;;;;;34.23;39.71;100816.28;4891051;29;20076;-83
2022/08/03 09:30:15;;;;;;;9.43;3.40;;;;;;;34.35;39.00;100810.31;4900399;29;20055;-81
2022/08/03 09:32:43;;;;;;;12.38;3.47;;;;;;;33.92;40.37;100815.44;4908203;29;20056;-81
2022/08/03 09:35:11;;;;;;;10.68;3.35;;;;;;;34.50;39.27;100818.06;4891634;29;20415;-77
2022/08/03 09:37:37;;;;;;;13.35;3.55;;;;;;;34.31;39.15;100817.50;4909883;29;20048;-81
2022/08/03 09:40:05;;;;;;;4.60;2.50;;;;;;;34.00;39.35;100813.91;4908431;29;20151;-82
2022/08/03 09:42:34;;;;;;;6.15;2.50;;;;;;;33.88;40.25;100807.09;4900851;29;20045;-81
2022/08/03 09:45:00;;;;;;;7.30;3.30;;;;;;;33.27;41.00;100808.44;4898708;29;20056;-82
2022/08/03 09:47:30;;;;;;;9.98;3.15;;;;;;;33.49;40.45;100809.63;4896687;29;20166;-78
2022/08/03 09:50:05;;;;;;;4.20;2.83;;;;;;;33.00;40.94;100813.88;4899277;29;20076;-83
2022/08/03 09:52:33;;;;;;;5.55;2.83;;;;;;;32.44;41.53;100805.94;4895820;29;20044;-81
2022/08/03 09:55:08;;;;;;;11.05;3.53;;;;;;;33.12;41.24;100816.03;4899156;29;20053;-81
2022/08/03 09:57:35;;;;;;;15.35;4.78;;;;;;;33.22;41.67;100800.38;4903228;29;20077;-82
2022/08/03 10:00:10;;;;;;;18.92;4.25;;;;;;;33.15;41.38;100805.41;4899204;29;20072;-83
2022/08/03 10:02:49;;;;;;;5.97;3.30;;;;;;;33.09;41.43;100803.09;4907249;29;20496;-83
2022/08/03 10:05:16;;;;;;;6.78;3.60;;;;;;;32.67;42.54;100802.25;4902397;29;20053;-80
2022/08/03 10:07:49;;;;;;;6.22;3.40;;;;;;;32.94;42.19;100810.44;4907412;29;20419;-83
2022/08/03 10:10:17;;;;;;;10.27;3.40;;;;;;;33.37;41.79;100801.19;4913450;29;20052;-85
2022/08/03 10:12:46;;;;;;;16.02;4.18;;;;;;;33.48;41.82;100789.03;4902842;29;20078;-82
2022/08/03 10:15:16;;;;;;;10.90;3.35;;;;;;;33.16;42.20;100779.09;4909362;29;20056;-81
2022/08/03 10:17:42;;;;;;;5.05;3.20;;;;;;;32.83;41.32;100786.53;4901863;29;20117;-81
2022/08/03 10:20:12;;;;;;;8.65;3.72;;;;;;;33.02;40.76;100802.72;4909516;29;20060;-82
2022/08/03 10:22:43;;;;;;;7.30;3.00;;;;;;;33.37;40.23;100784.91;4912696;29;20052;-82
2022/08/03 10:25:12;;;;;;;9.57;3.30;;;;;;;33.73;40.04;100784.91;4908838;29;20052;-82
2022/08/03 10:27:46;;;;;;;8.32;3.38;;;;;;;33.78;39.44;100772.03;4905834;29;20060;-82
2022/08/03 10:33:12;;;;;;;10.63;3.73;;;;;;;33.56;40.24;100767.38;4901446;29;20076;-82
2022/08/03 10:35:47;;;;;;;8.82;3.55;;;;;;;33.55;39.67;100759.56;4893689;29;20056;-83
2022/08/03 10:38:20;;;;;;;6.35;3.25;;;;;;;33.14;39.59;100746.84;4871831;29;20056;-83
2022/08/03 10:40:55;;;;;;;8.77;3.28;;;;;;;33.20;39.73;100748.34;4913938;23;20052;-84
2022/08/03 10:43:38;;;;;;;8.65;3.33;;;;;;;33.21;39.10;100749.16;4946119;29;20043;-85
2022/08/03 10:49:21;;;;;;;7.38;3.22;;;;;;;32.62;40.00;100753.56;4941449;29;20059;-85
2022/08/03 10:51:59;;;;;;;4.70;3.13;;;;;;;32.76;40.63;100734.66;4955194;29;20074;-85
2022/08/03 10:57:47;;;;;;;7.20;3.15;;;;;;;32.26;40.93;100745.31;4956915;28;20055;-83
2022/08/03 11:00:15;;;;;;;9.68;3.28;;;;;;;32.67;40.12;100748.88;4957074;29;20082;-83
2022/08/03 11:03:18;;;;;;;5.53;3.03;;;;;;;33.20;40.53;100740.22;4961199;29;20107;-82
2022/08/03 11:05:48;;;;;;;5.93;3.22;;;;;;;33.23;38.83;100726.06;4962293;28;20053;-82
2022/08/03 11:09:01;;;;;;;6.75;3.38;;;;;;;33.05;39.71;100723.50;4960780;28;20067;-81
2022/08/03 11:11:39;;;;;;;8.02;3.20;;;;;;;33.38;39.96;100705.16;4959171;29;20065;-82
2022/08/03 11:17:07;;;;;;;7.93;3.35;;;;;;;33.82;39.11;100721.47;4950677;29;20134;-81
2022/08/03 11:19:47;;;;;;;6.63;3.20;;;;;;;34.02;39.19;100738.38;4959958;29;20059;-81
2022/08/03 11:22:15;;;;;;;5.90;3.03;;;;;;;33.87;38.61;100724.06;4949052;29;20457;-81
2022/08/03 11:25:08;;;;;;;7.13;3.35;;;;;;;34.04;37.92;100722.56;4962006;29;20051;-81
2022/08/03 11:27:43;;;;;;;5.88;2.90;;;;;;;33.84;39.52;100696.75;4958822;29;20055;-81
2022/08/03 11:30:12;;;;;;;11.02;3.50;;;;;;;33.98;38.99;100708.34;4959063;29;20054;-83
2022/08/03 11:33:00;;;;;;;8.27;3.22;;;;;;;34.23;37.82;100715.00;4957868;28;20090;-83
2022/08/03 11:35:34;;;;;;;8.20;3.40;;;;;;;34.01;37.99;100717.78;4973857;28;20051;-83
2022/08/03 11:38:18;;;;;;;6.18;3.17;;;;;;;34.35;38.15;100714.44;4959948;28;20570;-84
2022/08/03 11:40:50;;;;;;;9.13;3.28;;;;;;;34.42;37.69;100718.31;4958882;28;20134;-82
2022/08/03 11:47:07;;;;;;;7.32;3.33;;;;;;;33.66;38.63;100722.91;5152818;27;20408;-82
2022/08/03 11:50:01;;;;;;;6.78;2.83;;;;;;;33.75;38.60;100702.09;5149840;27;20058;-83
2022/08/03 11:52:43;;;;;;;8.23;3.42;;;;;;;33.91;38.91;100725.06;5082202;28;20058;-80
2022/08/03 11:55:36;;;;;;;9.70;3.63;;;;;;;33.53;39.58;100692.03;5129776;27;20075;-82
2022/08/03 11:58:49;;;;;;;7.65;3.42;;;;;;;33.79;39.38;100700.38;5129248;27;20047;-81
2022/08/03 12:01:36;;;;;;;4.30;3.00;;;;;;;33.49;39.52;100717.38;5126674;28;20047;-80
2022/08/03 12:07:07;;;;;;;5.25;3.20;;;;;;;32.73;40.71;100698.09;5126567;27;20075;-82
2022/08/03 12:12:58;;;;;;;6.63;3.00;;;;;;;32.69;41.19;100707.94;5122816;27;20458;-82
2022/08/03 12:15:44;;;;;;;7.43;3.55;;;;;;;32.71;41.07;100707.63;5127509;28;20509;-84
2022/08/03 12:18:21;;;;;;;6.65;3.05;;;;;;;32.69;41.53;100721.47;5139178;27;20075;-84
2022/08/03 12:23:57;;;;;;;5.85;3.20;;;;;;;33.09;39.87;100703.59;5088644;27;20524;-84
2022/08/03 12:26:26;;;;;;;5.88;3.10;;;;;;;32.70;40.51;100695.19;5118181;28;20082;-85
2022/08/03 12:28:53;;;;;;;7.60;3.42;;;;;;;33.01;41.01;100701.63;5121969;28;20059;-84
2022/08/03 12:31:19;;;;;;;5.68;3.22;;;;;;;33.49;40.17;100704.63;5132354;28;20075;-84
2022/08/03 12:33:57;;;;;;;9.15;3.40;;;;;;;33.49;38.93;100701.09;5124080;27;20047;-85
2022/08/03 12:36:26;;;;;;;5.15;3.10;;;;;;;33.06;39.12;100690.66;5121274;27;20104;-83
2022/08/03 12:39:01;;;;;;;8.50;3.90;;;;;;;33.47;39.50;100693.28;5125044;27;20059;-85
2022/08/03 12:41:36;;;;;;;4.30;2.90;;;;;;;32.74;39.79;100682.63;5117160;28;20052;-85
2022/08/03 12:44:47;;;;;;;10.02;3.60;;;;;;;32.93;40.11;100684.16;5134450;28;20043;-83
2022/08/03 12:47:14;;;;;;;5.07;3.45;;;;;;;32.87;40.12;100671.81;5098820;27;20079;-84
2022/08/03 12:49:48;;;;;;;10.10;3.33;;;;;;;32.64;40.24;100665.47;5131473;27;20477;-84
2022/08/03 12:52:34;;;;;;;8.43;3.38;;;;;;;32.60;40.33;100691.59;5129910;27;20051;-84
2022/08/03 12:55:08;;;;;;;10.10;4.07;;;;;;;32.61;39.96;100682.34;5124514;28;20147;-85
2022/08/03 12:57:45;;;;;;;5.80;3.15;;;;;;;32.46;40.12;100677.25;5120306;27;20056;-84